createdAt,value
2022-12-29T00:01:16.413Z,1.45
2022-12-29T00:04:18.445Z,1.30
2022-12-29T00:07:20.533Z,1.40
2022-12-29T00:10:22.420Z,1.40
2022-12-29T00:13:24.395Z,1.10
2022-12-29T00:16:26.910Z,1.40
2022-12-29T00:22:30.841Z,1.55
2022-12-29T00:25:32.758Z,1.40
2022-12-29T00:28:34.693Z,1.00
2022-12-29T00:31:36.842Z,1.75
2022-12-29T00:34:38.892Z,1.35
2022-12-29T00:37:47.071Z,1.27
2022-12-29T00:40:49.457Z,1.17
2022-12-29T00:43:51.610Z,1.20
2022-12-29T00:46:53.546Z,1.20
2022-12-29T00:49:55.533Z,1.02
2022-12-29T00:52:57.729Z,1.10
2022-12-29T00:55:59.958Z,1.02
2022-12-29T00:59:07.868Z,1.10
2022-12-29T01:02:11.345Z,1.10
2022-12-29T01:05:13.388Z,1.50
2022-12-29T01:08:15.398Z,1.13
2022-12-29T01:11:17.356Z,1.27
2022-12-29T01:14:21.080Z,1.17
2022-12-29T01:17:23.016Z,1.10
2022-12-29T01:20:25.010Z,1.50
2022-12-29T01:23:26.955Z,1.00
2022-12-29T01:26:28.972Z,1.00
2022-12-29T01:29:31.560Z,1.52
2022-12-29T01:32:33.551Z,1.00
2022-12-29T01:35:35.473Z,1.33
2022-12-29T01:38:41.501Z,1.20
2022-12-29T01:41:43.416Z,1.50
2022-12-29T01:44:58.384Z,0.80
2022-12-29T01:48:04.821Z,1.10
2022-12-29T01:51:09.284Z,1.25
2022-12-29T01:54:17.543Z,0.98
2022-12-29T01:57:26.971Z,1.13
2022-12-29T02:00:29.003Z,1.23
2022-12-29T02:03:31.903Z,1.42
2022-12-29T02:06:47.315Z,1.20
2022-12-29T02:09:52.855Z,1.00
2022-12-29T02:12:55.265Z,1.00
2022-12-29T02:16:17.953Z,1.25
2022-12-29T02:19:59.122Z,1.30
2022-12-29T02:23:37.633Z,1.13
2022-12-29T02:26:51.627Z,1.00
2022-12-29T02:30:23.255Z,1.27
2022-12-29T02:33:47.506Z,0.88
2022-12-29T02:37:31.947Z,0.90
2022-12-29T02:41:08.953Z,0.80
2022-12-29T02:44:20.828Z,1.10
2022-12-29T02:47:34.708Z,0.93
2022-12-29T02:50:52.446Z,1.00
2022-12-29T02:53:57.189Z,0.95
2022-12-29T02:56:59.184Z,1.25
2022-12-29T03:00:16.136Z,1.13
2022-12-29T03:03:33.278Z,0.80
2022-12-29T03:06:47.795Z,1.30
2022-12-29T03:10:16.013Z,1.10
2022-12-29T03:13:25.920Z,0.90
2022-12-29T03:16:35.770Z,1.05
2022-12-29T03:19:47.449Z,1.05
2022-12-29T03:22:52.954Z,1.30
2022-12-29T03:26:03.131Z,1.00
2022-12-29T03:29:08.921Z,1.00
2022-12-29T03:32:13.896Z,0.90
2022-12-29T03:35:21.459Z,0.80
2022-12-29T03:38:38.869Z,0.70
2022-12-29T03:41:44.832Z,0.77
2022-12-29T03:44:47.556Z,0.85
2022-12-29T03:47:52.066Z,0.80
2022-12-29T03:50:54.422Z,0.93
2022-12-29T03:53:59.112Z,0.93
2022-12-29T03:57:01.174Z,0.55
2022-12-29T04:00:18.925Z,1.10
2022-12-29T04:03:24.654Z,1.02
2022-12-29T04:06:26.946Z,0.70
2022-12-29T04:09:35.714Z,0.80
2022-12-29T04:12:38.503Z,0.82
2022-12-29T04:18:43.794Z,1.10
2022-12-29T04:21:46.376Z,0.95
2022-12-29T04:24:48.398Z,0.77
2022-12-29T04:27:50.669Z,1.15
2022-12-29T04:31:12.869Z,0.85
2022-12-29T04:34:17.185Z,0.80
2022-12-29T04:37:22.673Z,0.70
2022-12-29T04:40:27.389Z,0.93
2022-12-29T04:43:33.305Z,0.80
2022-12-29T04:46:42.126Z,0.98
2022-12-29T04:49:52.336Z,0.73
2022-12-29T04:53:17.331Z,1.10
2022-12-29T04:56:19.975Z,1.13
2022-12-29T04:59:23.301Z,1.20
2022-12-29T05:02:28.738Z,1.00
2022-12-29T05:05:32.042Z,0.98
2022-12-29T05:08:35.098Z,0.95
2022-12-29T05:11:38.691Z,1.00
2022-12-29T05:14:43.951Z,1.00
2022-12-29T05:17:46.029Z,1.30
2022-12-29T05:20:48.465Z,1.00
2022-12-29T05:23:50.743Z,1.00
2022-12-29T05:26:53.254Z,1.20
2022-12-29T05:30:08.805Z,1.10
2022-12-29T05:33:10.903Z,1.00
2022-12-29T05:36:13.299Z,1.17
2022-12-29T05:39:20.834Z,1.27
2022-12-29T05:42:29.064Z,0.98
2022-12-29T05:45:57.456Z,1.30
2022-12-29T05:49:08.100Z,1.17
2022-12-29T05:52:28.629Z,1.10
2022-12-29T05:55:30.696Z,1.05
2022-12-29T05:58:32.680Z,1.45
2022-12-29T06:01:38.204Z,1.40
2022-12-29T06:04:40.207Z,1.08
2022-12-29T06:07:43.792Z,1.90
2022-12-29T06:10:45.861Z,1.42
2022-12-29T06:13:47.824Z,1.10
2022-12-29T06:16:49.852Z,1.50
2022-12-29T06:19:53.044Z,1.35
2022-12-29T06:22:55.990Z,1.58
2022-12-29T06:25:58.984Z,1.38
2022-12-29T06:29:00.865Z,1.33
2022-12-29T06:32:03.340Z,1.40
2022-12-29T06:35:08.192Z,0.98
2022-12-29T06:38:15.155Z,1.30
2022-12-29T06:41:17.041Z,1.40
2022-12-29T06:44:59.206Z,1.27
2022-12-29T06:48:01.107Z,2.05
2022-12-29T06:51:03.376Z,1.20
2022-12-29T06:54:05.617Z,1.30
2022-12-29T06:57:07.898Z,1.50
2022-12-29T07:00:10.413Z,1.25
2022-12-29T07:06:14.194Z,1.60
2022-12-29T07:09:16.203Z,1.33
2022-12-29T07:12:19.010Z,1.30
2022-12-29T07:15:21.227Z,1.75
2022-12-29T07:18:23.815Z,1.63
2022-12-29T07:21:25.705Z,1.40
2022-12-29T07:24:27.825Z,1.30
2022-12-29T07:27:29.751Z,1.30
2022-12-29T07:30:31.743Z,1.60
2022-12-29T07:33:34.193Z,1.67
2022-12-29T07:39:37.980Z,1.45
2022-12-29T07:42:39.871Z,1.52
2022-12-29T07:45:44.252Z,1.60
2022-12-29T07:48:48.495Z,1.30
2022-12-29T07:51:50.377Z,1.55
2022-12-29T07:54:53.753Z,1.48
2022-12-29T07:57:56.440Z,1.50
2022-12-29T08:00:58.974Z,1.38
2022-12-29T08:04:00.969Z,1.45
2022-12-29T08:07:02.848Z,1.23
2022-12-29T08:10:05.854Z,1.20
2022-12-29T08:13:07.719Z,1.33
2022-12-29T08:16:09.784Z,1.35
2022-12-29T08:19:13.038Z,1.30
2022-12-29T08:22:16.007Z,1.27
2022-12-29T08:25:18.069Z,1.15
2022-12-29T08:28:20.070Z,1.40
2022-12-29T08:31:22.320Z,1.23
2022-12-29T08:34:24.342Z,1.30
2022-12-29T08:37:30.920Z,1.20
2022-12-29T08:40:33.330Z,1.90
2022-12-29T08:43:35.329Z,1.58
2022-12-29T08:46:37.270Z,1.55
2022-12-29T08:49:39.320Z,1.73
2022-12-29T08:52:41.329Z,1.48
2022-12-29T08:55:43.227Z,1.42
2022-12-29T08:58:45.277Z,1.30
2022-12-29T09:01:47.444Z,1.60
2022-12-29T09:04:49.527Z,1.30
2022-12-29T09:07:51.387Z,2.08
2022-12-29T09:10:53.411Z,1.23
2022-12-29T09:13:56.074Z,1.60
2022-12-29T09:16:58.048Z,0.95
2022-12-29T09:19:59.905Z,2.40
2022-12-29T09:23:02.160Z,1.48
2022-12-29T09:29:06.123Z,1.30
2022-12-29T09:32:09.082Z,1.38
2022-12-29T09:35:13.063Z,1.80
2022-12-29T09:38:15.941Z,1.60
2022-12-29T09:41:25.720Z,1.42
2022-12-29T09:44:44.102Z,1.85
2022-12-29T09:47:47.183Z,1.20
2022-12-29T09:50:59.871Z,1.10
2022-12-29T09:54:09.130Z,1.20
2022-12-29T09:57:39.146Z,1.30
2022-12-29T10:01:15.592Z,1.38
2022-12-29T10:04:17.578Z,1.60
2022-12-29T10:07:42.524Z,1.33
2022-12-29T10:10:59.824Z,1.30
2022-12-29T10:14:18.693Z,1.40
2022-12-29T10:17:30.466Z,1.50
2022-12-29T10:21:00.571Z,1.30
2022-12-29T10:24:07.445Z,1.35
2022-12-29T10:27:13.182Z,1.23
2022-12-29T10:30:16.105Z,1.10
2022-12-29T10:33:23.876Z,1.20
2022-12-29T10:36:43.524Z,1.10
2022-12-29T10:39:54.275Z,1.33
2022-12-29T10:42:58.667Z,1.13
2022-12-29T10:46:04.926Z,1.73
2022-12-29T10:49:21.286Z,1.48
2022-12-29T10:52:26.111Z,1.48
2022-12-29T10:55:39.186Z,1.58
2022-12-29T10:58:46.749Z,1.20
2022-12-29T11:02:23.269Z,1.20
2022-12-29T11:05:45.956Z,1.73
2022-12-29T11:09:15.209Z,1.27
2022-12-29T11:12:27.335Z,1.35
2022-12-29T11:15:43.822Z,2.35
2022-12-29T11:18:47.807Z,1.50
2022-12-29T11:21:50.139Z,1.35
2022-12-29T11:28:02.895Z,1.20
2022-12-29T11:31:05.975Z,1.63
2022-12-29T11:34:08.617Z,1.42
2022-12-29T11:37:27.289Z,1.42
2022-12-29T11:40:30.212Z,1.10
2022-12-29T11:43:34.299Z,1.60
2022-12-29T11:46:38.857Z,1.40
2022-12-29T11:49:49.960Z,1.48
2022-12-29T12:03:16.467Z,1.00
2022-12-29T12:06:23.270Z,1.13
2022-12-29T12:09:38.040Z,0.98
2022-12-29T12:12:53.054Z,1.30
2022-12-29T12:16:05.166Z,0.80
2022-12-29T12:19:29.103Z,1.10
2022-12-29T12:22:44.234Z,1.08
2022-12-29T12:26:03.166Z,1.05
2022-12-29T12:29:26.502Z,0.90
2022-12-29T12:33:04.279Z,0.93
2022-12-29T12:36:18.890Z,0.73
2022-12-29T12:39:36.653Z,0.80
2022-12-29T12:43:08.894Z,0.80
2022-12-29T12:46:51.645Z,0.73
2022-12-29T12:50:31.291Z,0.73
2022-12-29T12:53:47.942Z,0.93
2022-12-29T12:57:07.218Z,1.10
2022-12-29T13:00:16.354Z,0.68
2022-12-29T13:03:51.165Z,0.75
2022-12-29T13:07:08.643Z,0.80
2022-12-29T13:10:54.359Z,1.00
2022-12-29T13:14:40.818Z,0.60
2022-12-29T13:17:57.849Z,0.75
2022-12-29T13:21:17.107Z,0.63
2022-12-29T13:24:52.903Z,1.05
2022-12-29T13:28:24.794Z,0.95
2022-12-29T13:31:42.615Z,0.82
2022-12-29T13:34:52.465Z,0.80
2022-12-29T13:37:57.780Z,0.75
2022-12-29T13:41:38.149Z,1.05
2022-12-29T13:45:12.266Z,0.90
2022-12-29T13:51:48.724Z,0.80
2022-12-29T13:55:08.324Z,0.80
2022-12-29T13:58:19.485Z,0.88
2022-12-29T14:01:41.275Z,0.70
2022-12-29T14:05:01.728Z,0.80
2022-12-29T14:08:06.801Z,0.80
2022-12-29T14:11:15.443Z,0.60
2022-12-29T14:14:31.820Z,0.70
2022-12-29T14:17:33.913Z,0.60
2022-12-29T14:20:36.502Z,0.80
2022-12-29T14:23:41.420Z,0.63
2022-12-29T14:26:43.364Z,0.52
2022-12-29T14:29:51.264Z,1.50
2022-12-29T14:33:04.427Z,0.68
2022-12-29T14:36:45.017Z,0.57
2022-12-29T14:40:26.573Z,0.65
2022-12-29T14:43:37.695Z,0.50
2022-12-29T14:46:54.945Z,0.60
2022-12-29T14:50:03.639Z,0.70
2022-12-29T14:53:07.568Z,0.63
2022-12-29T14:56:14.506Z,0.60
2022-12-29T14:59:17.890Z,0.90
2022-12-29T15:02:27.057Z,0.73
2022-12-29T15:05:49.371Z,1.10
2022-12-29T15:09:07.317Z,1.15
2022-12-29T15:12:39.490Z,0.93
2022-12-29T15:15:41.696Z,1.00
2022-12-29T15:18:43.782Z,1.15
2022-12-29T15:21:47.089Z,1.25
2022-12-29T15:24:52.339Z,1.13
2022-12-29T15:28:01.282Z,1.23
2022-12-29T15:31:05.973Z,1.00
2022-12-29T15:34:12.924Z,0.90
2022-12-29T15:37:29.390Z,0.80
2022-12-29T15:40:33.738Z,0.82
2022-12-29T15:43:35.755Z,1.00
2022-12-29T15:46:38.199Z,1.30
2022-12-29T15:49:42.522Z,1.92
2022-12-29T15:52:44.474Z,1.20
2022-12-29T15:55:46.980Z,1.25
2022-12-29T16:01:53.219Z,1.60
2022-12-29T16:05:17.257Z,1.02
2022-12-29T16:08:33.902Z,1.05
2022-12-29T16:11:42.712Z,1.33
2022-12-29T16:14:53.503Z,0.90
2022-12-29T16:17:56.336Z,0.85
2022-12-29T16:20:58.967Z,0.90
2022-12-29T16:27:45.735Z,1.00
2022-12-29T16:30:49.437Z,1.70
2022-12-29T16:33:56.789Z,1.13
2022-12-29T16:37:26.470Z,1.52
2022-12-29T16:43:40.037Z,1.40
2022-12-29T16:47:03.686Z,1.60
2022-12-29T16:50:21.175Z,1.42
2022-12-29T16:53:35.470Z,1.75
2022-12-29T16:56:43.941Z,2.47
2022-12-29T16:59:46.196Z,1.90
2022-12-29T17:02:54.811Z,2.50
2022-12-29T17:05:57.811Z,1.70
2022-12-29T17:09:03.386Z,1.20
2022-12-29T17:15:26.970Z,1.98
2022-12-29T17:18:29.505Z,1.80
2022-12-29T17:21:31.651Z,1.63
2022-12-29T17:24:41.448Z,1.75
2022-12-29T17:27:56.858Z,1.52
2022-12-29T17:31:03.511Z,1.80
2022-12-29T17:34:05.853Z,1.75
2022-12-29T17:37:32.562Z,1.90
2022-12-29T17:43:41.168Z,1.70
2022-12-29T17:46:43.105Z,2.00
2022-12-29T17:49:45.119Z,2.88
2022-12-29T17:53:00.098Z,1.98
2022-12-29T17:56:08.890Z,2.30
2022-12-29T18:02:34.626Z,1.60
2022-12-29T18:05:36.805Z,1.23
2022-12-29T18:08:40.578Z,2.08
2022-12-29T18:11:44.279Z,1.73
2022-12-29T18:14:46.309Z,1.70
2022-12-29T18:17:48.801Z,1.75
2022-12-29T18:23:53.876Z,1.85
2022-12-29T18:26:55.786Z,1.70
2022-12-29T18:29:57.737Z,1.65
2022-12-29T18:32:59.640Z,1.27
2022-12-29T18:36:04.653Z,1.70
2022-12-29T18:39:06.606Z,1.80
2022-12-29T18:42:10.096Z,1.58
2022-12-29T18:45:21.304Z,2.08
2022-12-29T18:51:30.031Z,1.20
2022-12-29T18:54:40.407Z,1.67
2022-12-29T18:57:53.383Z,1.40
2022-12-29T19:01:02.536Z,1.00
2022-12-29T19:04:37.536Z,1.20
2022-12-29T19:07:39.810Z,0.88
2022-12-29T19:10:44.114Z,1.52
2022-12-29T19:13:46.042Z,1.65
2022-12-29T19:16:52.999Z,2.17
2022-12-29T19:19:54.995Z,2.25
2022-12-29T19:22:58.460Z,1.92
2022-12-29T19:26:00.361Z,2.03
2022-12-29T19:29:08.586Z,1.63
2022-12-29T19:32:10.557Z,1.48
2022-12-29T19:35:12.513Z,1.73
2022-12-29T19:38:15.034Z,1.67
2022-12-29T19:41:16.905Z,1.55
2022-12-29T19:44:19.174Z,1.20
2022-12-29T19:47:28.433Z,1.60
2022-12-29T19:50:33.957Z,1.60
2022-12-29T19:53:36.499Z,1.27
2022-12-29T19:56:38.391Z,1.30
2022-12-29T19:59:40.400Z,1.23
2022-12-29T20:02:43.572Z,1.52
2022-12-29T20:05:49.349Z,1.52
2022-12-29T20:08:51.403Z,1.50
2022-12-29T20:11:53.386Z,1.10
2022-12-29T20:14:55.322Z,1.13
2022-12-29T20:18:14.529Z,1.45
2022-12-29T20:21:22.887Z,1.45
2022-12-29T20:24:24.885Z,1.20
2022-12-29T20:27:26.753Z,1.30
2022-12-29T20:30:28.710Z,1.02
2022-12-29T20:33:31.756Z,1.05
2022-12-29T20:36:36.040Z,1.20
2022-12-29T20:39:38.328Z,1.75
2022-12-29T20:42:40.474Z,1.48
2022-12-29T20:45:43.751Z,1.10
2022-12-29T20:48:45.896Z,1.15
2022-12-29T20:58:24.390Z,0.80
2022-12-29T21:01:27.373Z,0.88
2022-12-29T21:04:43.658Z,1.00
2022-12-29T21:07:51.654Z,1.15
2022-12-29T21:10:53.864Z,0.90
2022-12-29T21:14:00.704Z,1.13
2022-12-29T21:17:03.256Z,1.40
2022-12-29T21:20:05.628Z,1.00
2022-12-29T21:23:07.933Z,1.05
2022-12-29T21:26:10.890Z,1.02
2022-12-29T21:29:14.359Z,1.23
2022-12-29T21:32:16.620Z,1.13
2022-12-29T21:35:18.627Z,1.25
2022-12-29T21:38:20.561Z,0.98
2022-12-29T21:44:30.255Z,1.10
2022-12-29T21:47:34.568Z,0.80
2022-12-29T21:50:43.748Z,0.85
2022-12-29T21:53:45.807Z,0.90
2022-12-29T21:56:51.607Z,0.80
2022-12-29T21:59:53.603Z,1.05
2022-12-29T22:02:56.483Z,1.00
2022-12-29T22:05:58.864Z,0.80
2022-12-29T22:09:02.230Z,0.80
2022-12-29T22:12:04.434Z,1.05
2022-12-29T22:15:06.899Z,1.13
2022-12-29T22:21:16.655Z,0.98
2022-12-29T22:24:25.081Z,0.80
2022-12-29T22:27:27.081Z,1.05
2022-12-29T22:30:29.174Z,0.95
2022-12-29T22:33:31.558Z,0.90
2022-12-29T22:36:33.779Z,0.77
2022-12-29T22:39:35.686Z,0.95
2022-12-29T22:42:38.580Z,0.85
2022-12-29T22:45:41.469Z,0.65
2022-12-29T22:48:43.539Z,0.90
2022-12-29T22:51:45.387Z,0.90
2022-12-29T22:54:47.395Z,0.90
2022-12-29T22:57:49.327Z,0.93
2022-12-29T23:00:51.352Z,0.85
2022-12-29T23:03:53.367Z,1.02
2022-12-29T23:07:01.743Z,1.00
2022-12-29T23:10:05.227Z,1.30
2022-12-29T23:13:07.159Z,0.82
2022-12-29T23:16:09.260Z,1.00
2022-12-29T23:19:12.751Z,1.17
2022-12-29T23:22:15.293Z,1.17
2022-12-29T23:25:17.543Z,0.80
2022-12-29T23:28:20.392Z,0.98
2022-12-29T23:31:23.686Z,0.80
2022-12-29T23:34:25.681Z,1.45
2022-12-29T23:37:27.575Z,1.17
2022-12-29T23:40:29.466Z,1.25
2022-12-29T23:43:31.513Z,0.90
2022-12-29T23:46:33.463Z,1.88
2022-12-29T23:49:36.532Z,1.45
2022-12-29T23:52:38.466Z,1.20
2022-12-29T23:55:44.225Z,1.00
2022-12-29T23:58:46.745Z,1.10
